Time;durP1;ratioP1;P1;durP2;ratioP2;P2;SDS_P1;SDS_P2;PMS_P1;PMS_P2;Temp;Humidity;BMP_temperature;BMP_pressure;BME280_temperature;BME280_humidity;BME280_pressure;Samples;Min_cycle;Max_cycle;Signal;HPM_P1;HPM_P2
2022/12/26 00:01:37;;;;;;;88.40;24.98;;;;;;;14.10;100.00;100878.97;5119797;28;20490;-61
2022/12/26 00:04:03;;;;;;;87.53;26.93;;;;;;;14.34;100.00;100863.06;5116781;28;20085;-58
2022/12/26 00:06:30;;;;;;;96.78;25.50;;;;;;;14.54;100.00;100868.25;5120526;28;20288;-59
2022/12/26 00:08:57;;;;;;;84.43;24.93;;;;;;;14.52;100.00;100874.91;5113849;28;20034;-60
2022/12/26 00:11:24;;;;;;;88.73;25.93;;;;;;;14.63;100.00;100871.50;5115573;28;20284;-58
2022/12/26 00:13:59;;;;;;;85.20;24.30;;;;;;;14.62;100.00;100870.66;5115139;28;20264;-59
2022/12/26 00:16:25;;;;;;;84.17;25.13;;;;;;;14.86;100.00;100870.06;5116410;28;20308;-60
2022/12/26 00:18:51;;;;;;;91.47;27.23;;;;;;;14.38;100.00;100874.19;5118710;28;20271;-59
2022/12/26 00:21:17;;;;;;;84.57;25.55;;;;;;;14.59;100.00;100881.06;5114259;28;20032;-60
2022/12/26 00:23:43;;;;;;;93.40;26.80;;;;;;;14.24;100.00;100878.88;5109498;28;20123;-60
2022/12/26 00:26:14;;;;;;;91.90;25.35;;;;;;;14.69;100.00;100883.25;5113587;28;20032;-59
2022/12/26 00:28:40;;;;;;;85.70;27.13;;;;;;;14.33;100.00;100886.44;5114085;28;20117;-58
2022/12/26 00:31:08;;;;;;;87.97;28.00;;;;;;;14.37;100.00;100891.38;5104902;28;20285;-60
2022/12/26 00:33:35;;;;;;;92.27;25.70;;;;;;;14.74;100.00;100888.81;5109615;28;20194;-59
2022/12/26 00:36:08;;;;;;;92.90;28.00;;;;;;;14.36;100.00;100897.81;5112878;28;20268;-60
2022/12/26 00:38:36;;;;;;;83.53;27.80;;;;;;;14.23;100.00;100904.13;5116986;28;20340;-60
2022/12/26 00:41:03;;;;;;;83.40;28.93;;;;;;;14.20;100.00;100905.38;5113659;28;20289;-60
2022/12/26 00:43:29;;;;;;;81.80;27.43;;;;;;;13.84;100.00;100907.69;5113958;28;20260;-60
2022/12/26 00:45:56;;;;;;;96.40;26.80;;;;;;;13.90;100.00;100900.59;5113404;28;20325;-60
2022/12/26 00:48:23;;;;;;;94.22;28.45;;;;;;;14.47;100.00;100914.06;5112411;28;20286;-59
2022/12/26 00:50:49;;;;;;;86.18;27.85;;;;;;;14.84;100.00;100909.84;5118178;28;20032;-60
2022/12/26 00:53:14;;;;;;;75.45;25.50;;;;;;;14.42;100.00;100911.22;5116883;28;20032;-60
2022/12/26 00:55:40;;;;;;;79.60;26.27;;;;;;;14.73;100.00;100906.81;5116953;28;20032;-60
2022/12/26 00:58:06;;;;;;;80.30;26.35;;;;;;;14.02;100.00;100914.19;5123393;28;20039;-61
2022/12/26 01:00:32;;;;;;;80.82;24.27;;;;;;;14.25;100.00;100910.94;5119599;28;20024;-60
2022/12/26 01:02:57;;;;;;;83.70;26.27;;;;;;;14.54;100.00;100915.91;5108075;28;20032;-60
2022/12/26 01:05:23;;;;;;;75.20;25.10;;;;;;;14.10;100.00;100911.25;5123019;28;20339;-60
2022/12/26 01:07:49;;;;;;;69.57;26.52;;;;;;;13.79;100.00;100915.56;5126076;28;20050;-60
2022/12/26 01:10:14;;;;;;;72.40;23.75;;;;;;;14.00;100.00;100916.25;5122624;28;20044;-61
2022/12/26 01:12:40;;;;;;;76.17;25.73;;;;;;;13.84;100.00;100905.00;5125126;28;20031;-59
2022/12/26 01:15:07;;;;;;;79.43;24.63;;;;;;;14.45;100.00;100912.66;5122690;28;20273;-60
2022/12/26 01:17:33;;;;;;;74.23;24.93;;;;;;;14.35;100.00;100918.53;5117847;28;20024;-59
2022/12/26 01:19:59;;;;;;;69.25;24.92;;;;;;;13.94;100.00;100919.81;5123219;28;20279;-60
2022/12/26 01:22:25;;;;;;;78.47;25.52;;;;;;;13.96;100.00;100918.56;5119703;28;20040;-59
2022/12/26 01:24:56;;;;;;;70.43;24.80;;;;;;;13.93;100.00;100912.81;5123354;28;20023;-59
2022/12/26 01:27:23;;;;;;;70.07;24.77;;;;;;;14.02;100.00;100909.63;5126489;28;20347;-59
2022/12/26 01:29:49;;;;;;;82.57;26.40;;;;;;;14.04;100.00;100909.41;5126247;28;20272;-58
2022/12/26 01:32:15;;;;;;;75.25;24.83;;;;;;;13.90;100.00;100905.97;5121236;28;20291;-57
2022/12/26 01:34:42;;;;;;;77.47;24.67;;;;;;;13.46;100.00;100905.78;5121647;28;20044;-59
2022/12/26 01:37:14;;;;;;;83.20;27.47;;;;;;;13.65;100.00;100904.03;5125032;28;20043;-58
2022/12/26 01:39:40;;;;;;;71.00;25.03;;;;;;;13.54;100.00;100902.03;5119130;28;20271;-58
2022/12/26 01:42:13;;;;;;;69.68;25.83;;;;;;;13.40;100.00;100917.38;5118392;28;20273;-60
2022/12/26 01:45:16;;;;;;;70.37;25.40;;;;;;;13.57;100.00;100905.09;5125699;28;20099;-57
2022/12/26 01:48:00;;;;;;;69.30;24.53;;;;;;;13.87;100.00;100890.28;5122961;28;20260;-58
2022/12/26 01:50:34;;;;;;;67.30;23.60;;;;;;;13.89;100.00;100907.84;5120926;28;20306;-57
2022/12/26 01:53:09;;;;;;;80.77;26.23;;;;;;;14.15;100.00;100914.09;5126193;28;20271;-59
2022/12/26 01:55:36;;;;;;;64.60;23.83;;;;;;;14.24;100.00;100924.59;5119771;28;20275;-60
2022/12/26 01:58:09;;;;;;;66.50;24.73;;;;;;;13.99;100.00;100930.75;5124567;28;20707;-57
2022/12/26 02:00:36;;;;;;;71.73;25.23;;;;;;;13.95;100.00;100919.59;5122863;28;20268;-57
2022/12/26 02:05:50;;;;;;;76.10;26.93;;;;;;;13.70;100.00;100930.28;5114432;28;20290;-56
2022/12/26 02:08:22;;;;;;;67.60;25.20;;;;;;;13.80;100.00;100919.88;5124595;28;20256;-56
2022/12/26 02:10:55;;;;;;;65.07;25.50;;;;;;;13.82;100.00;100915.13;5116176;28;20040;-58
2022/12/26 02:13:22;;;;;;;60.90;23.97;;;;;;;13.62;100.00;100907.16;5123172;28;20276;-59
2022/12/26 02:15:48;;;;;;;69.50;26.57;;;;;;;13.71;100.00;100908.56;5124414;28;20282;-59
2022/12/26 02:18:13;;;;;;;63.70;25.83;;;;;;;13.52;100.00;100907.63;5119281;28;20288;-59
2022/12/26 02:20:48;;;;;;;63.20;26.37;;;;;;;13.46;100.00;100900.41;5118404;28;20043;-57
2022/12/26 02:23:42;;;;;;;76.80;27.67;;;;;;;13.45;100.00;100904.94;5117976;28;20043;-57
2022/12/26 02:26:41;;;;;;;73.27;29.50;;;;;;;13.52;100.00;100910.31;5119581;28;20355;-59
2022/12/26 02:29:36;;;;;;;77.87;28.70;;;;;;;13.62;100.00;100905.31;5124783;28;20288;-58
2022/12/26 02:32:20;;;;;;;71.80;28.87;;;;;;;13.59;100.00;100921.03;5118360;28;20316;-58
2022/12/26 02:35:05;;;;;;;74.70;30.97;;;;;;;13.40;100.00;100926.22;5121198;28;20263;-57
2022/12/26 02:37:58;;;;;;;68.30;28.47;;;;;;;13.51;100.00;100913.22;5117341;28;20271;-55
2022/12/26 02:40:33;;;;;;;80.87;29.77;;;;;;;13.61;100.00;100903.66;5117162;28;20723;-58
2022/12/26 02:43:22;;;;;;;72.67;28.90;;;;;;;13.59;100.00;100912.97;5117664;28;20301;-58
2022/12/26 02:49:02;;;;;;;70.60;29.00;;;;;;;13.54;100.00;100918.97;5117722;28;20268;-55
2022/12/26 03:14:50;;;;;;;82.57;31.80;;;;;;;13.02;100.00;100911.69;5125702;28;20276;-53
2022/12/26 03:17:23;;;;;;;77.60;34.63;;;;;;;13.14;100.00;100919.06;5125695;28;20269;-56
2022/12/26 03:20:10;;;;;;;75.50;33.53;;;;;;;13.02;100.00;100916.22;5123016;28;20275;-60
2022/12/26 03:22:58;;;;;;;80.67;34.63;;;;;;;13.02;100.00;100908.16;5118355;28;20270;-57
2022/12/26 03:28:23;;;;;;;87.80;35.17;;;;;;;13.09;100.00;100924.25;5118914;28;20299;-57
2022/12/26 03:30:49;;;;;;;88.47;36.47;;;;;;;13.35;100.00;100928.75;5120704;28;20281;-56
2022/12/26 03:36:06;;;;;;;103.70;38.60;;;;;;;13.24;100.00;100924.84;5122547;28;20044;-57
2022/12/26 03:39:14;;;;;;;96.33;37.43;;;;;;;13.44;100.00;100919.44;5121911;28;20334;-57
2022/12/26 04:21:07;;;;;;;87.97;32.83;;;;;;;13.12;100.00;100931.88;5121211;28;20269;-56
2022/12/26 04:44:02;;;;;;;79.87;34.13;;;;;;;12.92;100.00;100954.25;5075995;28;20301;-55
2022/12/26 04:46:30;;;;;;;63.83;28.80;;;;;;;12.98;100.00;100950.72;5065657;28;20337;-57
2022/12/26 04:51:41;;;;;;;53.70;25.97;;;;;;;13.05;100.00;100940.78;5099071;28;20278;-53
2022/12/26 04:54:07;;;;;;;44.77;20.63;;;;;;;13.06;100.00;100920.16;5096201;28;20273;-54
2022/12/26 04:56:32;;;;;;;43.05;21.00;;;;;;;13.01;100.00;100918.09;5095651;28;20021;-54
2022/12/26 04:58:58;;;;;;;38.65;19.50;;;;;;;12.87;100.00;100921.81;5103310;28;20044;-56
2022/12/26 05:09:49;;;;;;;30.27;14.53;;;;;;;12.66;100.00;100917.50;5105478;28;20265;-54
2022/12/26 05:12:15;;;;;;;32.30;15.83;;;;;;;12.81;100.00;100906.56;5099547;28;20344;-56
2022/12/26 05:14:40;;;;;;;30.13;13.70;;;;;;;12.55;100.00;100897.50;5107458;28;20269;-54
2022/12/26 05:31:00;;;;;;;23.13;10.82;;;;;;;12.93;100.00;100909.41;5104862;28;20341;-54
2022/12/26 05:36:13;;;;;;;21.13;9.83;;;;;;;12.73;100.00;100927.22;5120455;28;20358;-57
2022/12/26 05:38:39;;;;;;;18.90;9.40;;;;;;;12.59;100.00;100925.56;5120625;28;20299;-59
2022/12/26 05:41:04;;;;;;;20.70;9.82;;;;;;;12.88;100.00;100934.19;5123871;28;20267;-54
2022/12/26 05:43:31;;;;;;;20.77;9.67;;;;;;;12.74;100.00;100931.53;5119628;28;20028;-55
2022/12/26 05:45:57;;;;;;;15.57;8.40;;;;;;;12.72;100.00;100944.34;5121463;28;20341;-54
2022/12/26 05:48:23;;;;;;;19.50;8.63;;;;;;;12.84;100.00;100925.75;5123034;28;20024;-55
2022/12/26 05:50:49;;;;;;;20.13;8.95;;;;;;;12.93;100.00;100921.00;5125999;28;20062;-55
2022/12/26 05:53:14;;;;;;;21.23;9.10;;;;;;;13.07;100.00;100915.59;5129784;28;20874;-56
2022/12/26 05:55:40;;;;;;;16.33;9.37;;;;;;;12.88;100.00;100915.41;5125933;28;20268;-55
2022/12/26 05:58:05;;;;;;;16.63;9.67;;;;;;;12.72;100.00;100912.16;5128864;28;20035;-57
2022/12/26 06:00:31;;;;;;;19.08;9.55;;;;;;;12.88;100.00;100900.16;5126672;28;20069;-55
2022/12/26 06:03:01;;;;;;;14.80;8.87;;;;;;;12.56;100.00;100909.88;5128725;28;20043;-54
2022/12/26 06:05:27;;;;;;;20.20;9.03;;;;;;;12.87;100.00;100914.59;5126501;28;20320;-56
2022/12/26 06:07:54;;;;;;;19.37;9.70;;;;;;;12.72;100.00;100917.50;5125077;28;20263;-55
2022/12/26 06:10:20;;;;;;;17.75;9.32;;;;;;;12.61;100.00;100916.28;5122939;28;20284;-53
2022/12/26 06:12:45;;;;;;;18.13;10.13;;;;;;;12.68;100.00;100918.13;5118181;28;20054;-52
2022/12/26 06:15:11;;;;;;;17.53;8.33;;;;;;;12.68;100.00;100918.94;5122887;28;20272;-52
2022/12/26 06:17:37;;;;;;;18.58;10.27;;;;;;;12.56;100.00;100928.66;5123579;28;20038;-54
2022/12/26 06:20:04;;;;;;;19.63;10.00;;;;;;;12.68;100.00;100918.13;5124401;28;20099;-56
2022/12/26 06:22:29;;;;;;;24.65;11.27;;;;;;;12.74;100.00;100930.69;5124093;28;20027;-54
2022/12/26 06:24:55;;;;;;;18.55;9.95;;;;;;;12.43;100.00;100924.91;5124407;28;20043;-54
2022/12/26 06:27:20;;;;;;;23.53;10.83;;;;;;;12.60;100.00;100925.38;5124215;28;20042;-53
2022/12/26 06:29:45;;;;;;;20.33;10.80;;;;;;;12.57;100.00;100922.25;5123332;28;20269;-53
2022/12/26 06:32:11;;;;;;;23.47;11.80;;;;;;;12.53;100.00;100907.63;5123688;28;20076;-54
2022/12/26 06:34:37;;;;;;;24.88;11.25;;;;;;;12.32;100.00;100928.22;5124779;28;20370;-55
2022/12/26 06:37:02;;;;;;;26.17;12.10;;;;;;;12.61;100.00;100915.44;5124593;28;20043;-54
2022/12/26 06:39:28;;;;;;;24.93;12.10;;;;;;;12.33;100.00;100916.47;5123448;28;20265;-55
2022/12/26 06:41:53;;;;;;;23.57;12.17;;;;;;;12.46;100.00;100929.91;5123145;28;20039;-55
2022/12/26 06:44:19;;;;;;;30.57;12.73;;;;;;;12.43;100.00;100913.38;5122679;28;20356;-54
2022/12/26 06:46:44;;;;;;;24.90;12.20;;;;;;;12.43;100.00;100926.78;5123739;28;20031;-50
2022/12/26 06:49:10;;;;;;;28.13;12.15;;;;;;;12.33;100.00;100929.88;5118473;28;20276;-52
2022/12/26 06:51:35;;;;;;;27.27;12.57;;;;;;;12.43;100.00;100937.53;5115916;28;20057;-56
2022/12/26 06:54:01;;;;;;;30.50;13.95;;;;;;;12.46;100.00;100940.63;5120694;28;20099;-56
2022/12/26 06:56:27;;;;;;;38.83;12.20;;;;;;;12.41;100.00;100943.09;5115142;28;20067;-50
2022/12/26 06:58:58;;;;;;;24.42;12.05;;;;;;;12.41;100.00;100940.41;5115655;28;20316;-55
2022/12/26 07:01:25;;;;;;;23.30;11.90;;;;;;;12.39;100.00;100939.78;5118446;28;20023;-55
2022/12/26 07:03:53;;;;;;;28.10;13.57;;;;;;;12.34;100.00;100936.91;5118953;28;20332;-52
2022/12/26 07:06:26;;;;;;;22.77;11.47;;;;;;;12.55;100.00;100943.09;5120969;28;20260;-56
2022/12/26 07:08:54;;;;;;;30.43;12.13;;;;;;;12.45;100.00;100946.19;5118373;28;20274;-53
2022/12/26 07:11:24;;;;;;;28.00;12.83;;;;;;;12.29;100.00;100950.91;5115074;28;20276;-54
2022/12/26 07:13:50;;;;;;;26.07;12.33;;;;;;;12.57;100.00;100946.41;5119902;28;20281;-56
2022/12/26 07:16:16;;;;;;;23.25;10.98;;;;;;;12.35;100.00;100948.47;5116332;28;20275;-54
2022/12/26 07:18:41;;;;;;;23.83;11.90;;;;;;;12.41;100.00;100948.44;5113903;28;20095;-52
2022/12/26 07:21:09;;;;;;;27.52;12.10;;;;;;;12.32;100.00;100944.31;5118280;28;20051;-56
2022/12/26 07:23:35;;;;;;;21.53;10.47;;;;;;;12.52;100.00;100948.88;5117545;28;20039;-55
2022/12/26 07:26:01;;;;;;;20.73;10.17;;;;;;;12.35;100.00;100951.16;5117109;28;20269;-53
2022/12/26 07:28:27;;;;;;;20.50;10.10;;;;;;;12.53;100.00;100950.53;5116687;28;20031;-54
2022/12/26 07:30:53;;;;;;;22.45;10.57;;;;;;;12.36;100.00;100942.88;5122616;28;20096;-56
2022/12/26 07:33:19;;;;;;;16.90;9.27;;;;;;;12.40;100.00;100938.75;5125529;28;20044;-53
2022/12/26 07:35:45;;;;;;;20.65;9.45;;;;;;;12.20;100.00;100936.06;5120652;28;20087;-55
2022/12/26 07:38:11;;;;;;;20.70;10.33;;;;;;;12.18;100.00;100932.75;5124837;28;20069;-56
2022/12/26 07:40:37;;;;;;;18.90;9.73;;;;;;;12.55;100.00;100940.41;5124705;28;20092;-57
2022/12/26 07:43:03;;;;;;;22.10;9.13;;;;;;;12.31;100.00;100927.38;5126132;28;20036;-55
2022/12/26 07:45:29;;;;;;;18.40;9.50;;;;;;;12.26;100.00;100934.41;5122817;28;20050;-57
2022/12/26 07:47:56;;;;;;;22.20;8.82;;;;;;;12.26;100.00;100931.75;5123948;28;20056;-56
2022/12/26 07:50:22;;;;;;;19.73;9.53;;;;;;;12.41;100.00;100951.13;5123518;28;20031;-56
2022/12/26 07:52:47;;;;;;;17.13;7.70;;;;;;;12.48;100.00;100943.09;5120768;28;20269;-56
2022/12/26 07:55:13;;;;;;;18.07;8.73;;;;;;;12.58;100.00;100954.25;5123916;28;20027;-52
2022/12/26 07:57:39;;;;;;;15.65;8.27;;;;;;;12.51;100.00;100956.09;5120595;28;20035;-54
2022/12/26 08:00:05;;;;;;;17.63;8.33;;;;;;;12.77;100.00;100959.81;5122832;28;20043;-50
2022/12/26 08:02:37;;;;;;;18.83;8.33;;;;;;;12.80;100.00;100961.25;5118220;28;20044;-55
2022/12/26 08:05:03;;;;;;;22.40;7.32;;;;;;;12.67;100.00;100968.25;5121263;28;20268;-50
2022/12/26 08:07:28;;;;;;;14.25;6.38;;;;;;;12.71;100.00;100966.84;5119810;28;20032;-53
2022/12/26 08:09:55;;;;;;;16.33;7.05;;;;;;;12.95;100.00;100963.72;5123694;28;20043;-53
2022/12/26 08:12:23;;;;;;;12.63;7.27;;;;;;;12.94;100.00;100962.91;5123311;28;20043;-54
2022/12/26 08:14:49;;;;;;;13.97;6.20;;;;;;;12.96;100.00;100976.09;5122708;28;20268;-54
2022/12/26 08:17:15;;;;;;;20.58;6.40;;;;;;;12.80;100.00;100966.63;5121593;28;20283;-54
2022/12/26 08:19:41;;;;;;;11.07;5.00;;;;;;;12.67;100.00;100954.84;5121038;28;20036;-58
2022/12/26 08:22:06;;;;;;;12.00;5.07;;;;;;;12.56;100.00;100958.16;5120460;28;20050;-55
2022/12/26 08:24:33;;;;;;;9.57;5.20;;;;;;;12.43;100.00;100951.75;5122324;28;20024;-56
2022/12/26 08:26:58;;;;;;;12.10;5.83;;;;;;;12.57;100.00;100957.13;5116434;28;20070;-55
2022/12/26 08:29:23;;;;;;;12.37;5.87;;;;;;;12.51;100.00;100966.00;5125878;28;20043;-54
2022/12/26 08:31:49;;;;;;;11.25;4.85;;;;;;;12.58;100.00;100961.47;5115853;28;20056;-53
2022/12/26 08:34:15;;;;;;;14.47;5.23;;;;;;;12.53;100.00;100972.81;5119223;28;20046;-54
2022/12/26 08:36:40;;;;;;;10.65;4.60;;;;;;;12.65;100.00;100964.16;5116763;28;20066;-56
2022/12/26 08:39:06;;;;;;;11.87;4.93;;;;;;;12.89;100.00;100970.75;5113467;28;20043;-55
2022/12/26 08:41:31;;;;;;;15.63;4.30;;;;;;;12.79;100.00;100976.53;5113190;28;20036;-55
2022/12/26 08:43:57;;;;;;;14.60;5.30;;;;;;;12.92;100.00;100970.34;5113164;28;20032;-52
2022/12/26 08:46:23;;;;;;;7.77;4.90;;;;;;;13.28;100.00;100971.72;5113235;28;20286;-56
2022/12/26 08:48:49;;;;;;;17.15;4.55;;;;;;;13.20;100.00;100986.19;5113215;28;20264;-57
2022/12/26 08:51:23;;;;;;;8.43;5.10;;;;;;;13.33;100.00;100979.97;5114095;28;20039;-54
2022/12/26 08:53:50;;;;;;;10.70;4.47;;;;;;;13.20;100.00;100982.69;5113204;28;20043;-56
2022/12/26 08:56:19;;;;;;;10.67;4.73;;;;;;;13.30;100.00;100990.31;5119025;28;20268;-54
2022/12/26 08:58:44;;;;;;;11.27;5.30;;;;;;;13.29;100.00;100989.50;5124220;28;20032;-51
2022/12/26 09:01:15;;;;;;;8.98;4.30;;;;;;;13.50;100.00;101005.59;5119989;28;20329;-54
2022/12/26 09:03:41;;;;;;;15.03;4.80;;;;;;;13.41;100.00;100980.81;5119913;28;20103;-58
2022/12/26 09:06:07;;;;;;;9.13;4.53;;;;;;;13.30;100.00;101004.56;5122705;28;20281;-51
2022/12/26 09:08:33;;;;;;;18.45;5.28;;;;;;;13.43;100.00;100990.31;5122294;28;20036;-53
2022/12/26 09:11:25;;;;;;;9.90;4.50;;;;;;;13.43;100.00;100986.81;5118439;28;20039;-53
2022/12/26 09:13:52;;;;;;;15.37;4.63;;;;;;;13.37;100.00;100984.91;5120986;28;20287;-56
2022/12/26 09:16:21;;;;;;;10.37;3.93;;;;;;;13.41;100.00;100999.59;5127025;28;20270;-54
2022/12/26 09:18:47;;;;;;;8.43;4.30;;;;;;;13.54;100.00;100998.78;5124999;28;20271;-55
2022/12/26 09:21:16;;;;;;;14.37;4.60;;;;;;;13.47;100.00;101004.16;5125578;28;20272;-53
2022/12/26 09:23:42;;;;;;;12.70;4.27;;;;;;;13.86;100.00;101009.59;5123600;28;20342;-52
2022/12/26 09:26:11;;;;;;;15.50;4.20;;;;;;;13.69;100.00;101017.31;5127952;28;20274;-54
2022/12/26 09:28:37;;;;;;;13.33;3.53;;;;;;;13.30;100.00;101028.75;5124017;28;20307;-55
2022/12/26 09:31:06;;;;;;;10.85;4.03;;;;;;;13.42;100.00;101036.19;5125593;28;20276;-53
2022/12/26 09:33:36;;;;;;;10.90;4.23;;;;;;;13.52;100.00;101041.16;5125266;28;20107;-55
2022/12/26 09:36:05;;;;;;;10.80;4.57;;;;;;;13.45;100.00;101054.59;5121659;28;20336;-55
2022/12/26 09:38:32;;;;;;;6.10;3.67;;;;;;;13.42;100.00;101046.91;5127403;28;20289;-53
2022/12/26 09:41:24;;;;;;;14.10;4.03;;;;;;;13.64;100.00;101065.50;5121927;28;20269;-55
2022/12/26 09:43:52;;;;;;;21.53;4.13;;;;;;;13.40;100.00;101071.28;5121998;28;20039;-55
2022/12/26 09:46:31;;;;;;;13.13;4.90;;;;;;;13.32;100.00;101090.31;5125573;28;20269;-55
2022/12/26 09:49:01;;;;;;;11.27;4.10;;;;;;;13.13;100.00;101125.03;5125303;28;20335;-56
2022/12/26 09:51:29;;;;;;;10.97;3.97;;;;;;;13.02;100.00;101099.59;5122024;28;20310;-57
2022/12/26 09:53:55;;;;;;;9.43;3.53;;;;;;;12.86;100.00;101105.34;5121748;28;20279;-55
2022/12/26 09:56:24;;;;;;;14.63;4.32;;;;;;;13.26;100.00;101116.13;5119587;28;20268;-55
2022/12/26 09:58:58;;;;;;;11.70;3.47;;;;;;;13.37;100.00;101103.09;5123294;28;20099;-56
2022/12/26 10:01:32;;;;;;;9.87;3.60;;;;;;;13.13;100.00;101110.75;5124166;28;20252;-57
2022/12/26 10:03:58;;;;;;;13.37;4.60;;;;;;;13.20;100.00;101122.34;5118560;28;20263;-57
2022/12/26 10:06:26;;;;;;;13.00;3.83;;;;;;;13.48;100.00;101124.03;5103179;28;20314;-59
2022/12/26 10:09:03;;;;;;;10.33;3.77;;;;;;;12.96;100.00;101132.66;5120904;28;20083;-58
2022/12/26 10:11:48;;;;;;;26.17;5.13;;;;;;;13.31;100.00;101128.97;5122173;28;20273;-58
2022/12/26 10:14:39;;;;;;;16.43;4.47;;;;;;;13.44;100.00;101128.16;5122589;28;20028;-53
2022/12/26 10:17:13;;;;;;;14.90;4.80;;;;;;;13.17;100.00;101134.31;5117602;28;20268;-55
2022/12/26 10:19:46;;;;;;;20.37;4.80;;;;;;;13.58;100.00;101137.84;5100945;28;20265;-59
2022/12/26 10:22:36;;;;;;;18.57;4.63;;;;;;;13.10;100.00;101136.19;5116949;28;20279;-59
2022/12/26 10:25:11;;;;;;;25.33;5.10;;;;;;;13.51;100.00;101155.03;5116390;28;20293;-56
2022/12/26 10:27:40;;;;;;;21.97;4.60;;;;;;;13.23;100.00;101175.63;5111766;28;20264;-56
2022/12/26 10:30:12;;;;;;;17.47;3.67;;;;;;;12.79;100.00;101175.13;5114583;28;20279;-55
2022/12/26 10:32:50;;;;;;;18.20;3.27;;;;;;;13.12;100.00;101179.75;5113899;28;20287;-55
2022/12/26 10:35:39;;;;;;;28.07;4.67;;;;;;;13.27;100.00;101193.00;5113198;28;20449;-56
2022/12/26 10:38:14;;;;;;;20.67;4.17;;;;;;;12.95;100.00;101195.41;5117854;28;20295;-57
2022/12/26 10:40:43;;;;;;;28.33;3.00;;;;;;;12.64;100.00;101196.75;5114401;28;20279;-55
2022/12/26 10:43:20;;;;;;;22.27;3.20;;;;;;;12.88;100.00;101203.44;5095205;28;20336;-56
2022/12/26 10:45:53;;;;;;;17.85;3.22;;;;;;;13.11;100.00;101204.13;5114973;28;20272;-56
2022/12/26 10:48:27;;;;;;;19.57;3.20;;;;;;;12.88;100.00;101210.66;5114398;28;20036;-52
2022/12/26 10:50:54;;;;;;;16.17;3.47;;;;;;;13.02;100.00;101215.06;5113218;28;20283;-56
2022/12/26 10:53:20;;;;;;;24.98;3.90;;;;;;;12.92;100.00;101211.94;5113751;28;20280;-56
2022/12/26 10:55:45;;;;;;;18.10;3.17;;;;;;;12.37;100.00;101222.63;5119651;28;20032;-54
2022/12/26 10:58:17;;;;;;;31.80;3.73;;;;;;;12.75;100.00;101228.38;5120226;28;20036;-54
2022/12/26 11:00:43;;;;;;;23.83;3.17;;;;;;;12.90;100.00;101225.53;5115661;28;20028;-56
2022/12/26 11:03:17;;;;;;;27.83;4.70;;;;;;;14.41;100.00;101235.13;5119121;28;20298;-55
2022/12/26 11:05:45;;;;;;;20.53;2.83;;;;;;;15.13;100.00;101238.78;5117150;28;20070;-59
2022/12/26 11:08:20;;;;;;;14.47;4.47;;;;;;;14.93;100.00;101253.19;5098935;28;20331;-58
2022/12/26 11:11:03;;;;;;;21.30;3.50;;;;;;;14.53;100.00;101254.13;5117101;28;20295;-55
2022/12/26 11:13:32;;;;;;;20.70;3.37;;;;;;;14.84;100.00;101259.88;5118114;28;20269;-55
2022/12/26 11:15:58;;;;;;;38.80;4.80;;;;;;;14.69;100.00;101278.94;5117211;28;20324;-58
2022/12/26 11:18:37;;;;;;;13.55;2.45;;;;;;;13.91;100.00;101273.25;5114144;28;20367;-57
2022/12/26 11:21:22;;;;;;;11.90;3.07;;;;;;;13.71;100.00;101284.00;5114799;28;20043;-58
2022/12/26 11:23:51;;;;;;;16.63;3.13;;;;;;;13.26;100.00;101293.41;5116265;28;20348;-55
2022/12/26 11:26:31;;;;;;;11.97;2.27;;;;;;;13.10;100.00;101294.59;5114890;28;20276;-54
2022/12/26 11:29:12;;;;;;;18.83;3.10;;;;;;;13.04;100.00;101301.59;5113763;28;20261;-54
2022/12/26 11:31:58;;;;;;;15.00;2.53;;;;;;;12.47;100.00;101293.69;5116347;28;20287;-55
2022/12/26 11:34:35;;;;;;;20.90;3.50;;;;;;;12.66;100.00;101293.97;5117177;28;20276;-57
2022/12/26 11:37:02;;;;;;;;;;;;;;;12.81;100.00;101307.28;5109693;28;20326;-58
2022/12/26 11:39:32;;;;;;;11.13;1.87;;;;;;;12.64;100.00;101303.25;5117373;28;19975;-57
2022/12/26 11:41:58;;;;;;;17.43;2.73;;;;;;;12.81;100.00;101309.13;5115026;28;20309;-55
2022/12/26 11:44:28;;;;;;;15.13;4.00;;;;;;;13.11;100.00;101301.63;5115164;28;20269;-56
2022/12/26 11:47:22;;;;;;;20.53;3.33;;;;;;;13.22;100.00;101305.59;5117741;28;20024;-55
2022/12/26 11:49:58;;;;;;;15.83;2.37;;;;;;;13.13;100.00;101304.09;5109842;28;20304;-56
2022/12/26 11:52:36;;;;;;;10.90;2.50;;;;;;;13.26;100.00;101309.53;5116195;28;20299;-55
2022/12/26 11:55:21;;;;;;;14.37;2.90;;;;;;;13.60;100.00;101301.56;5111826;28;20284;-56
2022/12/26 11:58:05;;;;;;;17.40;2.23;;;;;;;13.55;100.00;101299.50;5113341;28;20273;-53
2022/12/26 12:00:34;;;;;;;10.37;2.43;;;;;;;13.78;100.00;101317.09;5113221;28;20269;-54
2022/12/26 12:03:02;;;;;;;11.23;2.47;;;;;;;13.94;100.00;101318.53;5111230;28;20277;-57
2022/12/26 12:05:27;;;;;;;10.37;2.30;;;;;;;13.45;100.00;101320.56;5098700;28;20277;-51
2022/12/26 12:08:17;;;;;;;12.20;3.80;;;;;;;13.59;100.00;101324.09;5111657;28;20337;-55
2022/12/26 12:11:04;;;;;;;16.17;3.00;;;;;;;13.17;100.00;101324.97;5111731;28;20103;-57
2022/12/26 12:13:49;;;;;;;10.60;2.93;;;;;;;13.64;100.00;101326.19;5113095;28;20352;-55
2022/12/26 12:16:30;;;;;;;13.43;2.37;;;;;;;13.95;100.00;101328.28;5111078;28;20261;-54
2022/12/26 12:19:18;;;;;;;17.57;3.87;;;;;;;13.81;100.00;101324.75;5123385;28;20256;-56
2022/12/26 12:21:55;;;;;;;16.17;3.13;;;;;;;13.57;100.00;101324.28;5115169;28;20272;-55
2022/12/26 12:24:37;;;;;;;19.73;2.67;;;;;;;13.98;100.00;101327.03;5117663;28;20272;-54
2022/12/26 12:27:21;;;;;;;10.93;2.93;;;;;;;13.52;100.00;101329.47;5114466;28;20043;-54
2022/12/26 12:30:13;;;;;;;9.40;2.37;;;;;;;14.26;100.00;101328.69;5114718;28;20275;-55
2022/12/26 12:32:59;;;;;;;8.20;2.47;;;;;;;14.59;100.00;101341.28;5114993;28;20280;-55
2022/12/26 12:36:04;;;;;;;11.97;2.40;;;;;;;15.97;100.00;101348.38;5111320;28;20298;-54
2022/12/26 12:38:49;;;;;;;12.20;2.60;;;;;;;16.00;100.00;101345.25;5077426;28;20332;-51
2022/12/26 12:41:41;;;;;;;6.90;1.80;;;;;;;16.28;100.00;101341.28;5071135;28;20280;-52
2022/12/26 12:44:21;;;;;;;10.90;2.10;;;;;;;16.48;100.00;101341.06;5117131;28;20276;-53
2022/12/26 12:47:17;;;;;;;5.67;1.63;;;;;;;16.57;100.00;101347.03;5117293;28;20294;-56
2022/12/26 12:50:13;;;;;;;6.20;2.00;;;;;;;15.69;100.00;101352.28;5115748;28;20288;-55
2022/12/26 12:52:50;;;;;;;7.77;1.90;;;;;;;16.13;100.00;101355.91;5117800;28;20269;-55
2022/12/26 12:55:33;;;;;;;8.15;2.20;;;;;;;15.58;100.00;101362.69;5121758;28;20277;-53
2022/12/26 12:58:15;;;;;;;6.87;2.00;;;;;;;15.47;100.00;101355.31;5122143;28;20043;-55
2022/12/26 13:00:47;;;;;;;12.97;2.67;;;;;;;15.82;100.00;101356.75;5117640;28;20277;-53
2022/12/26 13:03:39;;;;;;;7.03;2.00;;;;;;;16.24;100.00;101359.78;5114186;28;20276;-52
2022/12/26 13:06:09;;;;;;;15.47;2.00;;;;;;;15.76;100.00;101350.38;5118884;28;20280;-53
2022/12/26 13:08:43;;;;;;;11.03;3.10;;;;;;;16.17;100.00;101353.63;5119300;28;20028;-56
2022/12/26 13:11:27;;;;;;;11.03;2.53;;;;;;;15.09;100.00;101359.59;5120937;28;20032;-54
2022/12/26 13:14:00;;;;;;;16.97;2.67;;;;;;;15.21;100.00;101367.84;5120559;28;20286;-53
2022/12/26 13:16:31;;;;;;;12.90;2.43;;;;;;;14.71;100.00;101358.47;5121922;28;20295;-54
2022/12/26 13:19:02;;;;;;;10.10;2.07;;;;;;;14.02;100.00;101358.69;5101152;28;20276;-55
2022/12/26 13:21:37;;;;;;;8.80;2.33;;;;;;;14.11;100.00;101363.88;5120936;28;20271;-53
2022/12/26 13:24:24;;;;;;;7.20;2.13;;;;;;;13.56;100.00;101362.94;5120826;28;20287;-52
2022/12/26 13:27:21;;;;;;;6.43;1.90;;;;;;;13.25;100.00;101364.25;5115736;28;20704;-52
2022/12/26 13:29:48;;;;;;;13.18;2.25;;;;;;;13.56;100.00;101370.19;5118916;28;20271;-53